Bancroft, Wisconsin
Current Conditions -  °F | °C
As of 11:54 PM on Monday 20 Oct 2014 (Local Time) from KISW Reporting Station
Overcast Overcast  
Wind Chill: 46°   Ceiling: 4100
Heat Index: 48°   Visibility: 10mi
Dew Point: 40°   Wind: 5mph
Humidity: 74%   Direction: 40°NE
Pressure: 30.07"   Gusts: NA
Location:  44.31°N, 89.51°W
Report Text: KISW 210454Z AUTO 04004KT 10SM OVC041 09/04 A3007 RMK AO2 SLP188 T00890044
Loading
Personal Weather Stations






























Interactive Weather Map
Tropical Storm Tracking
New forecast layout! Learn more

10-Day Weather Forecast

Advertisements
Track Severe Weather on mobile